createdAt,value
2023-02-01T00:02:30.047Z,4.40
2023-02-01T00:05:16.670Z,4.40
2023-02-01T00:08:04.916Z,4.40
2023-02-01T00:10:51.167Z,4.40
2023-02-01T00:13:39.570Z,4.30
2023-02-01T00:16:28.843Z,4.30
2023-02-01T00:19:17.141Z,4.20
2023-02-01T00:22:03.571Z,4.20
2023-02-01T00:24:51.301Z,4.30
2023-02-01T00:27:37.806Z,4.30
2023-02-01T00:30:24.342Z,4.20
2023-02-01T00:33:11.033Z,4.30
2023-02-01T00:35:59.706Z,4.20
2023-02-01T00:38:46.961Z,4.20
2023-02-01T00:41:35.135Z,4.20
2023-02-01T00:44:21.856Z,4.30
2023-02-01T00:47:08.275Z,4.30
2023-02-01T00:49:54.743Z,4.50
2023-02-01T00:52:41.211Z,4.40
2023-02-01T00:55:27.732Z,4.40
2023-02-01T00:58:15.487Z,4.40
2023-02-01T01:01:07.639Z,4.40
2023-02-01T01:03:56.142Z,4.40
2023-02-01T01:06:42.821Z,4.40
2023-02-01T01:09:29.110Z,4.40
2023-02-01T01:12:15.490Z,4.50
2023-02-01T01:15:03.173Z,4.50
2023-02-01T01:17:49.560Z,4.70
2023-02-01T01:20:36.970Z,4.60
2023-02-01T01:23:24.044Z,4.70
2023-02-01T01:26:12.224Z,4.70
2023-02-01T01:29:00.311Z,4.60
2023-02-01T01:31:48.190Z,4.70
2023-02-01T01:34:34.477Z,4.60
2023-02-01T01:37:20.654Z,4.60
2023-02-01T01:40:09.207Z,4.50
2023-02-01T01:42:56.131Z,4.70
2023-02-01T01:45:42.652Z,4.60
2023-02-01T01:48:31.982Z,4.40
2023-02-01T01:51:22.394Z,4.50
2023-02-01T01:54:18.052Z,4.50
2023-02-01T01:57:09.367Z,4.40
2023-02-01T02:00:04.141Z,4.40
2023-02-01T02:02:56.629Z,4.50
2023-02-01T02:05:44.649Z,4.40
2023-02-01T02:08:31.190Z,4.60
2023-02-01T02:11:19.382Z,4.40
2023-02-01T02:14:09.574Z,4.40
2023-02-01T02:17:18.647Z,4.50
2023-02-01T02:20:33.258Z,4.60
2023-02-01T02:24:09.339Z,4.60
2023-02-01T02:27:26.303Z,4.70
2023-02-01T02:30:38.363Z,4.70
2023-02-01T02:33:52.177Z,4.70
2023-02-01T02:36:45.639Z,4.70
2023-02-01T02:39:43.251Z,4.70
2023-02-01T02:42:57.592Z,4.70
2023-02-01T02:46:10.895Z,4.80
2023-02-01T02:49:06.583Z,4.70
2023-02-01T02:52:14.830Z,4.80
2023-02-01T02:55:04.537Z,4.80
2023-02-01T02:58:09.085Z,4.80
2023-02-01T03:01:14.631Z,4.80
2023-02-01T03:04:09.716Z,4.80
2023-02-01T03:06:56.407Z,4.80
2023-02-01T03:09:47.670Z,5.00
2023-02-01T03:12:57.381Z,4.90
2023-02-01T03:15:50.364Z,4.80
2023-02-01T03:18:41.745Z,4.90
2023-02-01T03:21:34.180Z,4.90
2023-02-01T03:24:33.899Z,4.90
2023-02-01T03:27:25.333Z,4.90
2023-02-01T03:30:18.785Z,4.90
2023-02-01T03:33:14.714Z,4.80
2023-02-01T03:36:10.664Z,4.90
2023-02-01T03:39:04.650Z,4.90
2023-02-01T03:41:54.963Z,4.80
2023-02-01T03:44:46.632Z,4.80
2023-02-01T03:47:37.425Z,4.80
2023-02-01T03:50:27.220Z,4.80
2023-02-01T03:53:18.401Z,4.80
2023-02-01T03:56:07.623Z,4.80
2023-02-01T03:59:00.598Z,4.80
2023-02-01T04:01:47.005Z,4.90
2023-02-01T04:04:33.799Z,4.90
2023-02-01T04:07:20.097Z,4.90
2023-02-01T04:10:07.549Z,5.00
2023-02-01T04:12:55.669Z,5.00
2023-02-01T04:15:42.493Z,5.00
2023-02-01T04:18:29.224Z,4.90
2023-02-01T04:21:15.695Z,4.90
2023-02-01T04:24:02.115Z,4.90
2023-02-01T04:26:48.425Z,5.00
2023-02-01T04:29:36.352Z,5.00
2023-02-01T04:32:22.737Z,5.00
2023-02-01T04:35:10.314Z,5.00
2023-02-01T04:37:56.728Z,5.00
2023-02-01T04:40:43.285Z,4.90
2023-02-01T04:43:29.497Z,5.10
2023-02-01T04:46:17.520Z,5.00
2023-02-01T04:49:03.965Z,5.10
2023-02-01T04:51:50.491Z,5.00
2023-02-01T04:54:36.839Z,5.10
2023-02-01T04:57:23.284Z,5.10
2023-02-01T05:00:12.029Z,5.10
2023-02-01T05:02:59.687Z,5.00
2023-02-01T05:05:46.113Z,4.90
2023-02-01T05:08:32.628Z,4.80
2023-02-01T05:11:32.784Z,4.70
2023-02-01T05:14:19.517Z,4.60
2023-02-01T05:17:05.828Z,4.60
2023-02-01T05:19:53.579Z,4.60
2023-02-01T05:22:40.140Z,4.50
2023-02-01T05:25:26.433Z,4.50
2023-02-01T05:28:13.124Z,4.40
2023-02-01T05:30:59.854Z,4.50
2023-02-01T05:33:46.081Z,4.40
2023-02-01T05:36:34.088Z,4.40
2023-02-01T05:39:20.839Z,4.40
2023-02-01T05:42:07.254Z,4.40
2023-02-01T05:44:53.654Z,4.40
2023-02-01T05:47:40.187Z,4.50
2023-02-01T05:50:26.475Z,4.50
2023-02-01T05:53:14.853Z,4.40
2023-02-01T05:56:01.575Z,4.60
2023-02-01T05:58:48.258Z,4.70
2023-02-01T06:01:34.665Z,4.70
2023-02-01T06:04:21.343Z,4.60
2023-02-01T06:07:08.630Z,4.60
2023-02-01T06:09:56.137Z,4.80
2023-02-01T06:12:42.765Z,4.80
2023-02-01T06:15:29.131Z,4.80
2023-02-01T06:18:16.647Z,4.70
2023-02-01T06:21:04.333Z,4.60
2023-02-01T06:23:51.222Z,4.50
2023-02-01T06:26:40.009Z,4.40
2023-02-01T06:29:27.523Z,4.50
2023-02-01T06:32:14.040Z,4.40
2023-02-01T06:35:01.532Z,4.40
2023-02-01T06:37:47.899Z,4.50
2023-02-01T06:40:34.287Z,4.50
2023-02-01T06:43:22.034Z,4.70
2023-02-01T06:46:11.658Z,4.70
2023-02-01T06:48:58.129Z,4.70
2023-02-01T06:51:44.671Z,4.70
2023-02-01T06:54:33.275Z,4.60
2023-02-01T06:57:19.486Z,4.60
2023-02-01T07:00:08.538Z,4.60
2023-02-01T07:02:55.071Z,4.60
2023-02-01T07:05:41.399Z,4.60
2023-02-01T07:08:29.301Z,4.70
2023-02-01T07:11:16.930Z,4.70
2023-02-01T07:14:03.301Z,4.80
2023-02-01T07:16:51.818Z,4.90
2023-02-01T07:19:38.443Z,5.00
2023-02-01T07:22:24.810Z,4.90
2023-02-01T07:25:11.270Z,5.00
2023-02-01T07:27:57.967Z,5.00
2023-02-01T07:30:44.628Z,5.10
2023-02-01T07:33:32.579Z,5.10
2023-02-01T07:36:19.952Z,5.10
2023-02-01T07:39:06.604Z,5.10
2023-02-01T07:41:53.055Z,5.30
2023-02-01T07:44:39.511Z,5.30
2023-02-01T07:47:25.923Z,5.20
2023-02-01T07:50:13.948Z,5.30
2023-02-01T07:53:01.845Z,5.30
2023-02-01T07:55:48.891Z,5.30
2023-02-01T07:58:35.516Z,5.30
2023-02-01T08:01:25.341Z,5.30
2023-02-01T08:04:14.263Z,5.20
2023-02-01T08:07:01.880Z,5.20
2023-02-01T08:09:48.665Z,5.20
2023-02-01T08:12:34.938Z,5.20
2023-02-01T08:15:21.287Z,5.30
2023-02-01T08:18:08.090Z,5.20
2023-02-01T08:20:54.944Z,5.40
2023-02-01T08:23:44.422Z,5.40
2023-02-01T08:26:30.851Z,5.30
2023-02-01T08:29:17.371Z,5.20
2023-02-01T08:32:03.809Z,5.20
2023-02-01T08:34:50.313Z,5.10
2023-02-01T08:37:37.252Z,5.00
2023-02-01T08:40:25.359Z,5.00
2023-02-01T08:43:11.941Z,5.00
2023-02-01T08:45:58.493Z,4.90
2023-02-01T08:48:45.145Z,4.70
2023-02-01T08:51:31.592Z,4.80
2023-02-01T08:54:17.796Z,4.80
2023-02-01T08:57:06.053Z,4.70
2023-02-01T08:59:52.482Z,4.70
2023-02-01T09:02:39.307Z,4.70
2023-02-01T09:05:29.544Z,4.70
2023-02-01T09:08:21.572Z,4.70
2023-02-01T09:11:10.658Z,4.70
2023-02-01T09:13:59.106Z,4.80
2023-02-01T09:16:45.483Z,4.90
2023-02-01T09:19:31.712Z,4.90
2023-02-01T09:22:18.164Z,4.90
2023-02-01T09:25:05.419Z,5.10
2023-02-01T09:27:51.777Z,5.20
2023-02-01T09:30:39.789Z,5.40
2023-02-01T09:33:26.182Z,5.50
2023-02-01T09:36:12.669Z,5.60
2023-02-01T09:38:59.279Z,5.70
2023-02-01T09:41:58.784Z,5.80
2023-02-01T09:44:55.773Z,5.80
2023-02-01T09:47:50.036Z,5.80
2023-02-01T09:50:40.937Z,6.00
2023-02-01T09:53:31.653Z,6.10
2023-02-01T09:56:23.753Z,6.20
2023-02-01T09:59:22.927Z,6.40
2023-02-01T10:02:16.737Z,6.50
2023-02-01T10:05:04.718Z,6.70
2023-02-01T10:08:03.044Z,6.80
2023-02-01T10:10:51.582Z,6.90
2023-02-01T10:13:52.969Z,7.10
2023-02-01T10:16:45.997Z,7.10
2023-02-01T10:19:46.199Z,7.00
2023-02-01T10:23:05.293Z,7.10
2023-02-01T10:25:56.410Z,7.20
2023-02-01T10:28:46.342Z,7.30
2023-02-01T10:31:37.020Z,7.60
2023-02-01T10:34:26.925Z,7.80
2023-02-01T10:37:25.203Z,8.00
2023-02-01T10:40:20.750Z,8.30
2023-02-01T10:43:07.005Z,8.30
2023-02-01T10:45:53.585Z,8.30
2023-02-01T10:48:41.770Z,8.50
2023-02-01T10:54:21.460Z,8.80
2023-02-01T10:57:12.067Z,8.70
2023-02-01T10:59:58.427Z,8.50
2023-02-01T11:02:46.017Z,8.30
2023-02-01T11:05:45.875Z,8.40
2023-02-01T11:08:32.672Z,8.10
2023-02-01T11:11:20.500Z,7.90
2023-02-01T11:14:16.830Z,7.90
2023-02-01T11:17:18.660Z,8.00
2023-02-01T11:20:08.446Z,7.80
2023-02-01T11:22:56.881Z,7.80
2023-02-01T11:25:51.085Z,7.90
2023-02-01T11:28:42.439Z,7.80
2023-02-01T11:31:30.930Z,7.90
2023-02-01T11:34:20.591Z,7.80
2023-02-01T11:37:15.329Z,8.00
2023-02-01T11:40:04.626Z,7.80
2023-02-01T11:42:56.639Z,7.70
2023-02-01T11:45:43.546Z,7.70
2023-02-01T11:48:32.800Z,7.80
2023-02-01T11:51:34.264Z,7.80
2023-02-01T11:54:33.542Z,7.80
2023-02-01T11:57:40.145Z,7.80
2023-02-01T12:00:52.963Z,8.00
2023-02-01T12:04:03.144Z,8.10
2023-02-01T12:06:53.463Z,8.20
2023-02-01T12:09:52.856Z,8.20
2023-02-01T12:12:49.514Z,8.30
2023-02-01T12:15:49.453Z,8.40
2023-02-01T12:18:57.265Z,8.30
2023-02-01T12:22:03.913Z,8.40
2023-02-01T12:25:18.326Z,8.40
2023-02-01T12:28:20.183Z,8.30
2023-02-01T12:31:25.864Z,8.30
2023-02-01T12:34:42.427Z,8.30
2023-02-01T12:37:45.427Z,8.40
2023-02-01T12:40:47.500Z,8.50
2023-02-01T12:43:41.027Z,8.60
2023-02-01T12:46:33.637Z,8.60
2023-02-01T12:49:26.602Z,8.60
2023-02-01T12:52:18.603Z,8.40
2023-02-01T12:55:12.333Z,8.20
2023-02-01T12:58:07.315Z,8.20
2023-02-01T13:00:59.537Z,8.00
2023-02-01T13:03:55.935Z,8.00
2023-02-01T13:06:48.566Z,7.90
2023-02-01T13:09:42.681Z,7.90
2023-02-01T13:12:36.074Z,7.90
2023-02-01T13:15:27.853Z,7.80
2023-02-01T13:18:20.350Z,7.80
2023-02-01T13:21:11.716Z,7.90
2023-02-01T13:24:00.375Z,7.80
2023-02-01T13:26:48.361Z,7.90
2023-02-01T13:29:36.322Z,7.90
2023-02-01T13:33:52.467Z,7.80
2023-02-01T13:36:25.202Z,7.80
2023-02-01T13:39:50.175Z,7.80
2023-02-01T13:42:44.838Z,8.00
2023-02-01T13:45:33.873Z,8.10
2023-02-01T13:48:27.267Z,8.10
2023-02-01T13:51:14.929Z,8.20
2023-02-01T13:54:01.735Z,8.30
2023-02-01T13:56:49.580Z,8.30
2023-02-01T13:59:51.991Z,8.30
2023-02-01T14:03:16.650Z,8.40
2023-02-01T14:06:17.653Z,8.50
2023-02-01T14:09:32.375Z,8.50
2023-02-01T14:12:46.744Z,8.50
2023-02-01T14:15:33.516Z,8.50
2023-02-01T14:18:52.234Z,8.60
2023-02-01T14:21:50.061Z,8.50
2023-02-01T14:24:38.613Z,8.50
2023-02-01T14:27:27.973Z,8.60
2023-02-01T14:30:18.674Z,8.60
2023-02-01T14:33:19.935Z,8.60
2023-02-01T14:36:10.144Z,8.60
2023-02-01T14:38:56.768Z,8.50
2023-02-01T14:41:46.061Z,8.40
2023-02-01T14:44:35.739Z,8.30
2023-02-01T14:47:38.292Z,8.20
2023-02-01T14:50:37.455Z,8.10
2023-02-01T14:53:28.500Z,7.80
2023-02-01T14:56:21.208Z,7.70
2023-02-01T14:59:11.701Z,7.50
2023-02-01T15:02:01.035Z,7.50
2023-02-01T15:04:54.490Z,7.40
2023-02-01T15:07:40.869Z,7.30
2023-02-01T15:10:28.321Z,7.20
2023-02-01T15:13:23.079Z,7.20
2023-02-01T15:16:14.049Z,7.20
2023-02-01T15:19:12.081Z,7.10
2023-02-01T15:22:00.992Z,7.00
2023-02-01T15:24:55.245Z,6.90
2023-02-01T15:27:42.169Z,6.90
2023-02-01T15:30:30.838Z,6.80
2023-02-01T15:33:20.190Z,6.70
2023-02-01T15:36:12.796Z,6.70
2023-02-01T15:39:24.005Z,6.80
2023-02-01T15:42:19.703Z,6.70
2023-02-01T15:45:17.952Z,6.70
2023-02-01T15:48:04.900Z,6.30
2023-02-01T15:50:52.001Z,5.10
2023-02-01T15:53:38.510Z,4.70
2023-02-01T15:56:29.362Z,4.30
2023-02-01T15:59:18.775Z,4.10
2023-02-01T16:02:05.533Z,4.00
2023-02-01T16:04:52.245Z,3.80
2023-02-01T16:07:39.013Z,3.60
2023-02-01T16:10:30.107Z,3.70
2023-02-01T16:13:19.401Z,3.60
2023-02-01T16:16:09.040Z,3.80
2023-02-01T16:18:55.856Z,3.90
2023-02-01T16:21:42.440Z,3.80
2023-02-01T16:24:28.989Z,3.70
2023-02-01T16:27:15.723Z,3.60
2023-02-01T16:30:03.676Z,3.70
2023-02-01T16:32:50.329Z,3.60
2023-02-01T16:35:38.862Z,3.70
2023-02-01T16:38:25.766Z,3.90
2023-02-01T16:41:15.394Z,3.90
2023-02-01T16:44:01.733Z,4.00
2023-02-01T16:46:50.528Z,4.00
2023-02-01T16:49:37.636Z,4.00
2023-02-01T16:52:27.187Z,3.90
2023-02-01T16:55:15.404Z,3.90
2023-02-01T16:58:01.878Z,3.80
2023-02-01T17:00:49.788Z,3.90
2023-02-01T17:03:38.436Z,3.90
2023-02-01T17:06:26.976Z,3.90
2023-02-01T17:09:13.779Z,3.80
2023-02-01T17:12:00.439Z,3.80
2023-02-01T17:14:46.773Z,3.80
2023-02-01T17:17:39.198Z,3.80
2023-02-01T17:20:32.414Z,3.80
2023-02-01T17:23:19.223Z,3.80
2023-02-01T17:26:06.031Z,3.80
2023-02-01T17:28:52.405Z,3.80
2023-02-01T17:31:41.267Z,3.80
2023-02-01T17:34:28.127Z,3.80
2023-02-01T17:37:24.520Z,3.80
2023-02-01T17:40:13.100Z,3.70
2023-02-01T17:42:59.633Z,3.60
2023-02-01T17:45:52.526Z,3.60
2023-02-01T17:48:39.764Z,3.40
2023-02-01T17:51:28.160Z,3.50
2023-02-01T17:54:17.013Z,3.50
2023-02-01T17:57:04.239Z,3.40
2023-02-01T17:59:50.643Z,3.40
2023-02-01T18:02:37.040Z,3.30
2023-02-01T18:05:27.824Z,3.30
2023-02-01T18:08:14.250Z,3.30
2023-02-01T18:11:03.199Z,3.30
2023-02-01T18:13:50.443Z,3.30
2023-02-01T18:16:37.149Z,3.30
2023-02-01T18:19:23.839Z,3.40
2023-02-01T18:22:17.351Z,3.40
2023-02-01T18:25:03.593Z,3.30
2023-02-01T18:27:53.215Z,3.40
2023-02-01T18:30:39.797Z,3.30
2023-02-01T18:33:26.524Z,3.40
2023-02-01T18:36:14.135Z,3.30
2023-02-01T18:39:01.078Z,3.40
2023-02-01T18:41:48.987Z,3.30
2023-02-01T18:44:37.098Z,3.30
2023-02-01T18:47:23.596Z,3.30
2023-02-01T18:50:11.000Z,3.40
2023-02-01T18:52:58.697Z,3.40
2023-02-01T18:55:44.917Z,3.50
2023-02-01T18:58:31.835Z,3.50
2023-02-01T19:01:22.489Z,3.40
2023-02-01T19:04:20.183Z,3.50
2023-02-01T19:07:12.297Z,3.60
2023-02-01T19:09:58.716Z,3.70
2023-02-01T19:12:45.258Z,3.60
2023-02-01T19:15:34.546Z,3.80
2023-02-01T19:18:22.441Z,3.90
2023-02-01T19:21:10.896Z,4.10
2023-02-01T19:23:57.401Z,4.20
2023-02-01T19:26:44.925Z,4.20
2023-02-01T19:29:32.279Z,4.10
2023-02-01T19:32:18.795Z,4.20
2023-02-01T19:35:08.013Z,4.10
2023-02-01T19:37:54.661Z,4.20
2023-02-01T19:40:41.848Z,4.20
2023-02-01T19:43:28.353Z,4.30
2023-02-01T19:46:14.880Z,4.30
2023-02-01T19:49:01.250Z,4.40
2023-02-01T19:51:49.132Z,4.40
2023-02-01T19:54:35.699Z,4.50
2023-02-01T19:57:22.214Z,4.50
2023-02-01T20:00:13.666Z,4.70
2023-02-01T20:03:00.446Z,4.70
2023-02-01T20:05:47.232Z,4.60
2023-02-01T20:08:35.403Z,4.60
2023-02-01T20:11:23.251Z,4.60
2023-02-01T20:14:10.380Z,4.50
2023-02-01T20:16:57.428Z,4.50
2023-02-01T20:19:43.819Z,4.40
2023-02-01T20:22:30.130Z,4.50
2023-02-01T20:25:17.957Z,4.50
2023-02-01T20:28:05.835Z,4.60
2023-02-01T20:30:52.253Z,4.50
2023-02-01T20:33:38.582Z,4.60
2023-02-01T20:36:26.386Z,4.70
2023-02-01T20:39:12.723Z,4.80
2023-02-01T20:42:00.398Z,4.80
2023-02-01T20:44:46.892Z,4.70
2023-02-01T20:47:33.475Z,4.70
2023-02-01T20:50:20.201Z,4.70
2023-02-01T20:53:06.900Z,4.60
2023-02-01T20:55:53.696Z,4.80
2023-02-01T20:58:41.627Z,4.80
2023-02-01T21:01:29.476Z,4.70
2023-02-01T21:04:16.243Z,4.60
2023-02-01T21:07:03.422Z,4.40
2023-02-01T21:09:50.029Z,4.10
2023-02-01T21:12:36.927Z,3.90
2023-02-01T21:15:26.274Z,3.80
2023-02-01T21:18:13.954Z,3.70
2023-02-01T21:21:06.223Z,3.70
2023-02-01T21:23:53.123Z,3.70
2023-02-01T21:26:41.932Z,3.80
2023-02-01T21:29:28.616Z,3.80
2023-02-01T21:32:16.340Z,3.80
2023-02-01T21:35:03.711Z,3.80
2023-02-01T21:37:50.778Z,3.80
2023-02-01T21:40:38.103Z,3.70
2023-02-01T21:43:24.761Z,3.70
2023-02-01T21:46:11.579Z,3.80
2023-02-01T21:49:03.878Z,3.80
2023-02-01T21:51:52.435Z,3.80
2023-02-01T21:54:39.712Z,3.60
2023-02-01T21:57:26.394Z,3.50
2023-02-01T22:00:14.552Z,3.50
2023-02-01T22:03:01.119Z,3.30
2023-02-01T22:05:52.010Z,3.30
2023-02-01T22:08:39.301Z,3.20
2023-02-01T22:11:26.503Z,3.30
2023-02-01T22:14:13.255Z,3.10
2023-02-01T22:17:00.569Z,3.00
2023-02-01T22:19:47.298Z,3.00
2023-02-01T22:22:34.947Z,3.00
2023-02-01T22:25:21.220Z,2.90
2023-02-01T22:28:31.859Z,3.00
2023-02-01T22:31:14.728Z,3.10
2023-02-01T22:34:01.388Z,3.10
2023-02-01T22:36:48.912Z,3.10
2023-02-01T22:39:37.318Z,3.10
2023-02-01T22:42:23.656Z,3.50
2023-02-01T22:45:10.825Z,3.80
2023-02-01T22:47:57.104Z,4.00
2023-02-01T22:50:44.279Z,4.10
2023-02-01T22:53:31.673Z,4.10
2023-02-01T22:56:19.933Z,4.00
2023-02-01T22:59:08.511Z,3.90
2023-02-01T23:01:55.421Z,3.80
2023-02-01T23:04:42.236Z,3.90
2023-02-01T23:07:28.992Z,3.80
2023-02-01T23:10:16.617Z,3.80
2023-02-01T23:13:04.587Z,3.70
2023-02-01T23:15:51.325Z,3.90
2023-02-01T23:18:38.535Z,4.00
2023-02-01T23:21:25.540Z,4.10
2023-02-01T23:24:12.191Z,4.10
2023-02-01T23:26:58.616Z,4.20
2023-02-01T23:29:46.275Z,4.30
2023-02-01T23:32:33.359Z,4.20
2023-02-01T23:35:20.089Z,4.20
2023-02-01T23:38:06.400Z,4.10
2023-02-01T23:40:53.723Z,4.10
2023-02-01T23:43:57.836Z,4.00
2023-02-01T23:46:47.229Z,4.10
2023-02-01T23:49:33.883Z,4.20
2023-02-01T23:52:20.286Z,4.00
2023-02-01T23:55:07.695Z,3.90
2023-02-01T23:57:54.006Z,3.80
